createdAt,value
2019-03-28T00:01:07.630Z,7.20
2019-03-28T00:03:37.382Z,7.20
2019-03-28T00:06:07.267Z,7.20
2019-03-28T00:08:37.150Z,7.30
2019-03-28T00:11:06.941Z,7.30
2019-03-28T00:13:36.753Z,7.30
2019-03-28T00:16:06.760Z,7.20
2019-03-28T00:18:36.546Z,7.30
2019-03-28T00:21:06.351Z,7.20
2019-03-28T00:23:58.246Z,7.30
2019-03-28T00:26:30.514Z,7.20
2019-03-28T00:28:59.602Z,7.20
2019-03-28T00:31:29.450Z,7.10
2019-03-28T00:33:59.234Z,7.10
2019-03-28T00:36:29.056Z,7.10
2019-03-28T00:38:58.865Z,7.20
2019-03-28T00:41:28.665Z,7.20
2019-03-28T00:43:58.445Z,7.20
2019-03-28T00:46:28.306Z,7.20
2019-03-28T00:48:58.105Z,7.20
2019-03-28T00:51:27.909Z,7.30
2019-03-28T00:53:57.727Z,7.30
2019-03-28T00:56:27.661Z,7.30
2019-03-28T00:58:57.523Z,7.30
2019-03-28T01:01:27.346Z,7.30
2019-03-28T01:03:57.129Z,7.40
2019-03-28T01:06:26.933Z,7.40
2019-03-28T01:08:56.711Z,7.50
2019-03-28T01:11:26.505Z,7.50
2019-03-28T01:13:56.237Z,7.50
2019-03-28T01:16:26.325Z,7.50
2019-03-28T01:18:56.241Z,7.50
2019-03-28T01:21:26.042Z,7.50
2019-03-28T01:23:55.911Z,7.50
2019-03-28T01:26:25.717Z,7.50
2019-03-28T01:28:55.530Z,7.50
2019-03-28T01:31:25.350Z,7.40
2019-03-28T01:33:55.138Z,7.40
2019-03-28T01:36:24.967Z,7.40
2019-03-28T01:38:54.755Z,7.40
2019-03-28T01:41:24.558Z,7.40
2019-03-28T01:43:54.442Z,7.40
2019-03-28T01:46:25.121Z,7.40
2019-03-28T01:48:55.090Z,7.40
2019-03-28T01:51:24.887Z,7.40
2019-03-28T01:53:54.676Z,7.40
2019-03-28T01:56:25.163Z,7.50
2019-03-28T01:58:55.231Z,7.40
2019-03-28T02:01:25.277Z,7.50
2019-03-28T02:03:55.079Z,7.50
2019-03-28T02:06:24.982Z,7.50
2019-03-28T02:08:54.876Z,7.50
2019-03-28T02:11:24.665Z,7.50
2019-03-28T02:13:54.459Z,7.50
2019-03-28T02:16:24.353Z,7.40
2019-03-28T02:18:54.210Z,7.30
2019-03-28T02:21:24.270Z,7.30
2019-03-28T02:23:54.086Z,7.30
2019-03-28T02:26:23.885Z,7.30
2019-03-28T02:28:53.706Z,7.30
2019-03-28T02:31:23.527Z,7.30
2019-03-28T02:33:53.448Z,7.30
2019-03-28T02:36:23.309Z,7.30
2019-03-28T02:38:53.133Z,7.30
2019-03-28T02:41:22.946Z,7.30
2019-03-28T02:43:52.734Z,7.30
2019-03-28T02:46:22.912Z,7.30
2019-03-28T02:48:53.757Z,7.30
2019-03-28T02:51:23.895Z,7.30
2019-03-28T02:53:53.746Z,7.30
2019-03-28T02:56:23.642Z,7.20
2019-03-28T02:58:53.556Z,7.20
2019-03-28T03:01:23.402Z,7.20
2019-03-28T03:03:53.338Z,7.10
2019-03-28T03:06:23.208Z,7.00
2019-03-28T03:08:52.986Z,7.10
2019-03-28T03:11:22.798Z,7.10
2019-03-28T03:13:52.730Z,7.00
2019-03-28T03:16:22.800Z,6.90
2019-03-28T03:18:52.938Z,6.90
2019-03-28T03:21:22.814Z,6.90
2019-03-28T03:23:52.689Z,6.90
2019-03-28T03:26:22.442Z,6.90
2019-03-28T03:28:52.277Z,6.90
2019-03-28T03:31:22.489Z,6.90
2019-03-28T03:33:53.082Z,7.00
2019-03-28T03:36:22.870Z,6.90
2019-03-28T03:38:52.767Z,6.90
2019-03-28T03:41:22.686Z,6.90
2019-03-28T03:43:52.495Z,6.90
2019-03-28T03:46:22.308Z,7.00
2019-03-28T03:48:52.223Z,7.00
2019-03-28T03:51:22.046Z,7.00
2019-03-28T03:53:51.840Z,7.00
2019-03-28T03:56:21.626Z,7.00
2019-03-28T03:58:51.422Z,7.00
2019-03-28T04:01:21.220Z,7.00
2019-03-28T04:03:51.120Z,7.00
2019-03-28T04:06:20.920Z,7.00
2019-03-28T04:08:50.809Z,7.10
2019-03-28T04:11:20.687Z,7.10
2019-03-28T04:13:50.553Z,7.10
2019-03-28T04:16:20.422Z,7.20
2019-03-28T04:18:50.209Z,7.20
2019-03-28T04:21:20.037Z,7.20
2019-03-28T04:23:49.965Z,7.20
2019-03-28T04:26:19.767Z,7.20
2019-03-28T04:28:49.611Z,7.30
2019-03-28T04:31:19.449Z,7.30
2019-03-28T04:33:49.321Z,7.30
2019-03-28T04:36:19.145Z,7.30
2019-03-28T04:38:48.947Z,7.40
2019-03-28T04:41:18.780Z,7.40
2019-03-28T04:43:48.594Z,7.40
2019-03-28T04:46:18.502Z,7.40
2019-03-28T04:48:50.663Z,7.40
2019-03-28T04:51:19.877Z,7.40
2019-03-28T04:53:49.690Z,7.40
2019-03-28T04:56:19.503Z,7.40
2019-03-28T04:58:49.416Z,7.40
2019-03-28T05:01:19.409Z,7.50
2019-03-28T05:03:49.453Z,7.50
2019-03-28T05:06:19.453Z,7.50
2019-03-28T05:08:49.281Z,7.50
2019-03-28T05:11:19.191Z,7.50
2019-03-28T05:13:49.150Z,7.40
2019-03-28T05:16:18.962Z,7.40
2019-03-28T05:18:48.748Z,7.50
2019-03-28T05:21:18.585Z,7.50
2019-03-28T05:23:48.422Z,7.50
2019-03-28T05:26:18.236Z,7.50
2019-03-28T05:28:57.319Z,7.50
2019-03-28T05:31:19.747Z,7.50
2019-03-28T05:33:49.634Z,7.50
2019-03-28T05:36:19.667Z,7.50
2019-03-28T05:38:49.516Z,7.50
2019-03-28T05:41:20.909Z,7.60
2019-03-28T05:43:51.821Z,7.50
2019-03-28T05:46:21.633Z,7.60
2019-03-28T05:48:52.581Z,7.60
2019-03-28T05:51:22.478Z,7.50
2019-03-28T05:53:52.341Z,7.60
2019-03-28T05:56:22.332Z,7.60
2019-03-28T05:58:52.253Z,7.60
2019-03-28T06:01:22.433Z,7.70
2019-03-28T06:03:52.316Z,7.70
2019-03-28T06:06:22.137Z,7.70
2019-03-28T06:08:51.945Z,7.70
2019-03-28T06:11:21.803Z,7.70
2019-03-28T06:13:51.615Z,7.70
2019-03-28T06:16:21.502Z,7.70
2019-03-28T06:18:51.385Z,7.70
2019-03-28T06:21:21.469Z,7.70
2019-03-28T06:23:51.486Z,7.80
2019-03-28T06:26:21.319Z,7.80
2019-03-28T06:28:51.457Z,7.80
2019-03-28T06:31:21.592Z,7.80
2019-03-28T06:33:51.455Z,7.80
2019-03-28T06:36:21.313Z,7.90
2019-03-28T06:38:51.170Z,8.00
2019-03-28T06:41:20.962Z,8.10
2019-03-28T06:43:50.753Z,8.10
2019-03-28T06:46:20.598Z,8.20
2019-03-28T06:48:50.418Z,8.20
2019-03-28T06:51:20.419Z,8.20
2019-03-28T06:53:50.258Z,8.30
2019-03-28T06:56:20.081Z,8.40
2019-03-28T06:58:49.930Z,8.50
2019-03-28T07:01:19.847Z,8.60
2019-03-28T07:03:49.646Z,8.60
2019-03-28T07:06:19.447Z,8.60
2019-03-28T07:08:49.302Z,8.70
2019-03-28T07:11:19.177Z,8.70
2019-03-28T07:13:48.997Z,8.70
2019-03-28T07:16:24.329Z,8.70
2019-03-28T07:18:54.150Z,8.80
2019-03-28T07:21:26.785Z,9.00
2019-03-28T07:23:58.814Z,9.10
2019-03-28T07:26:28.650Z,9.20
2019-03-28T07:28:59.387Z,9.30
2019-03-28T07:31:29.641Z,9.40
2019-03-28T07:33:59.483Z,9.40
2019-03-28T07:36:29.381Z,9.40
2019-03-28T07:39:01.723Z,9.50
2019-03-28T07:41:31.674Z,9.50
2019-03-28T07:44:02.197Z,9.60
2019-03-28T07:46:32.030Z,9.60
2019-03-28T07:49:02.913Z,9.70
2019-03-28T07:51:32.975Z,9.70
2019-03-28T07:54:03.402Z,9.70
2019-03-28T07:56:33.332Z,9.70
2019-03-28T07:59:03.378Z,9.80
2019-03-28T08:01:33.296Z,9.80
2019-03-28T08:04:03.242Z,9.70
2019-03-28T08:06:33.285Z,9.60
2019-03-28T08:09:04.390Z,9.60
2019-03-28T08:11:34.467Z,9.70
2019-03-28T08:14:04.637Z,9.70
2019-03-28T08:16:34.445Z,9.60
2019-03-28T08:19:06.504Z,9.50
2019-03-28T08:21:36.546Z,9.50
2019-03-28T08:24:19.126Z,9.40
2019-03-28T08:26:52.510Z,9.40
2019-03-28T08:29:28.605Z,9.50
2019-03-28T08:31:59.047Z,9.60
2019-03-28T08:34:31.834Z,9.90
2019-03-28T08:37:03.022Z,10.20
2019-03-28T08:39:33.973Z,10.30
2019-03-28T08:42:05.116Z,10.30
2019-03-28T08:44:35.026Z,10.40
2019-03-28T08:47:06.174Z,10.50
2019-03-28T08:49:36.454Z,10.70
2019-03-28T08:52:06.323Z,10.80
2019-03-28T08:54:36.222Z,10.80
2019-03-28T08:57:06.126Z,10.90
2019-03-28T08:59:35.978Z,10.90
2019-03-28T09:02:07.045Z,11.00
2019-03-28T09:04:37.005Z,11.20
2019-03-28T09:07:06.841Z,11.60
2019-03-28T09:09:36.699Z,11.80
2019-03-28T09:12:06.628Z,12.10
2019-03-28T09:14:36.446Z,12.20
2019-03-28T09:17:06.279Z,12.30
2019-03-28T09:19:38.861Z,12.70
2019-03-28T09:22:07.700Z,12.70
2019-03-28T09:24:37.646Z,12.80
2019-03-28T09:27:07.558Z,12.30
2019-03-28T09:29:37.378Z,12.20
2019-03-28T09:32:07.257Z,12.20
2019-03-28T09:34:37.262Z,12.00
2019-03-28T09:37:07.207Z,11.80
2019-03-28T09:39:37.107Z,11.70
2019-03-28T09:42:06.945Z,11.70
2019-03-28T09:44:36.912Z,11.60
2019-03-28T09:47:06.790Z,11.60
2019-03-28T09:49:36.748Z,11.70
2019-03-28T09:52:06.741Z,11.90
2019-03-28T09:54:36.622Z,11.90
2019-03-28T09:57:06.489Z,11.90
2019-03-28T09:59:36.481Z,12.10
2019-03-28T10:02:06.389Z,12.30
2019-03-28T10:04:36.212Z,12.70
2019-03-28T10:07:06.085Z,13.40
2019-03-28T10:09:36.133Z,13.80
2019-03-28T10:12:06.637Z,13.90
2019-03-28T10:14:38.979Z,13.90
2019-03-28T10:17:08.805Z,14.30
2019-03-28T10:19:38.741Z,14.00
2019-03-28T10:22:08.556Z,13.70
2019-03-28T10:24:40.438Z,13.70
2019-03-28T10:27:10.309Z,14.00
2019-03-28T10:29:40.306Z,14.20
2019-03-28T10:32:11.300Z,14.30
2019-03-28T10:34:41.218Z,15.30
2019-03-28T10:37:11.341Z,14.90
2019-03-28T10:39:41.212Z,14.60
2019-03-28T10:42:11.209Z,14.50
2019-03-28T10:44:41.058Z,14.60
2019-03-28T10:47:11.198Z,14.60
2019-03-28T10:49:41.541Z,14.80
2019-03-28T10:52:12.205Z,15.00
2019-03-28T10:54:42.061Z,14.90
2019-03-28T10:57:15.524Z,14.70
2019-03-28T10:59:46.002Z,14.60
2019-03-28T11:02:16.140Z,14.50
2019-03-28T11:04:45.938Z,14.20
2019-03-28T11:07:15.785Z,14.00
2019-03-28T11:09:45.660Z,13.70
2019-03-28T11:12:15.597Z,13.40
2019-03-28T11:14:46.420Z,13.40
2019-03-28T11:17:16.583Z,13.40
2019-03-28T11:19:46.496Z,13.20
2019-03-28T11:22:16.509Z,13.00
2019-03-28T11:24:51.974Z,13.10
2019-03-28T11:27:23.551Z,12.60
2019-03-28T11:29:53.565Z,12.40
2019-03-28T11:32:23.676Z,12.20
2019-03-28T11:34:53.634Z,12.10
2019-03-28T11:37:26.372Z,11.80
2019-03-28T11:39:55.098Z,11.60
2019-03-28T11:42:28.414Z,11.40
2019-03-28T11:44:58.399Z,11.20
2019-03-28T11:47:28.265Z,11.10
2019-03-28T11:49:58.135Z,10.90
2019-03-28T11:52:28.026Z,10.90
2019-03-28T11:54:57.889Z,10.90
2019-03-28T11:57:27.744Z,11.00
2019-03-28T11:59:58.070Z,11.00
2019-03-28T12:02:28.039Z,11.00
2019-03-28T12:04:57.867Z,10.90
2019-03-28T12:07:27.829Z,11.00
2019-03-28T12:09:57.726Z,11.00
2019-03-28T12:12:27.542Z,11.20
2019-03-28T12:15:10.085Z,11.50
2019-03-28T12:17:39.907Z,11.70
2019-03-28T12:20:11.626Z,11.80
2019-03-28T12:22:41.585Z,11.90
2019-03-28T12:25:14.743Z,12.10
2019-03-28T12:27:51.515Z,12.10
2019-03-28T12:30:22.650Z,12.20
2019-03-28T12:32:57.666Z,12.40
2019-03-28T12:35:27.493Z,12.50
2019-03-28T12:37:57.351Z,12.60
2019-03-28T12:40:31.382Z,12.60
2019-03-28T12:43:01.259Z,12.70
2019-03-28T12:45:34.164Z,12.70
2019-03-28T12:48:04.923Z,12.60
2019-03-28T12:50:34.762Z,12.50
2019-03-28T12:53:05.116Z,12.40
2019-03-28T12:55:35.001Z,12.50
2019-03-28T12:58:04.846Z,12.40
2019-03-28T13:00:40.122Z,12.30
2019-03-28T13:03:11.979Z,12.40
2019-03-28T13:05:50.303Z,12.50
2019-03-28T13:08:24.397Z,12.50
2019-03-28T13:10:56.266Z,12.70
2019-03-28T13:13:35.501Z,12.40
2019-03-28T13:16:05.591Z,13.00
2019-03-28T13:18:37.246Z,12.80
2019-03-28T13:21:13.385Z,12.80
2019-03-28T13:24:17.922Z,12.80
2019-03-28T13:26:48.412Z,12.80
2019-03-28T13:29:18.418Z,12.90
2019-03-28T13:31:48.218Z,13.10
2019-03-28T13:34:18.074Z,13.20
2019-03-28T13:36:47.890Z,13.40
2019-03-28T13:39:20.025Z,13.60
2019-03-28T13:41:49.889Z,13.50
2019-03-28T13:44:19.750Z,13.70
2019-03-28T13:46:49.568Z,13.70
2019-03-28T13:49:19.452Z,13.70
2019-03-28T13:51:49.335Z,13.90
2019-03-28T13:54:19.999Z,13.90
2019-03-28T13:56:50.856Z,13.80
2019-03-28T13:59:20.761Z,13.80
2019-03-28T14:01:50.759Z,14.00
2019-03-28T14:04:20.574Z,14.00
2019-03-28T14:06:50.409Z,13.90
2019-03-28T14:09:23.146Z,13.90
2019-03-28T14:11:51.818Z,13.70
2019-03-28T14:14:21.718Z,13.50
2019-03-28T14:16:53.186Z,13.40
2019-03-28T14:19:23.129Z,13.40
2019-03-28T14:21:52.929Z,13.30
2019-03-28T14:24:22.782Z,13.30
2019-03-28T14:26:52.607Z,13.30
2019-03-28T14:29:22.490Z,13.20
2019-03-28T14:31:52.290Z,13.20
2019-03-28T14:34:22.097Z,13.20
2019-03-28T14:36:51.958Z,13.10
2019-03-28T14:39:21.861Z,13.10
2019-03-28T14:41:51.658Z,13.10
2019-03-28T14:44:23.553Z,13.10
2019-03-28T14:46:53.369Z,13.10
2019-03-28T14:49:23.370Z,13.10
2019-03-28T14:51:53.348Z,13.10
2019-03-28T14:54:23.141Z,13.20
2019-03-28T14:56:53.271Z,13.30
2019-03-28T14:59:32.557Z,13.30
2019-03-28T15:01:55.472Z,13.20
2019-03-28T15:04:25.392Z,13.20
2019-03-28T15:06:55.197Z,13.30
2019-03-28T15:09:25.053Z,13.10
2019-03-28T15:11:54.840Z,13.00
2019-03-28T15:14:24.737Z,12.90
2019-03-28T15:16:54.558Z,12.90
2019-03-28T15:19:24.340Z,12.90
2019-03-28T15:21:54.206Z,12.90
2019-03-28T15:24:24.021Z,12.90
2019-03-28T15:26:53.965Z,12.80
2019-03-28T15:29:23.933Z,12.90
2019-03-28T15:31:53.858Z,12.70
2019-03-28T15:34:23.701Z,12.70
2019-03-28T15:36:53.707Z,12.80
2019-03-28T15:39:23.780Z,12.70
2019-03-28T15:41:53.586Z,12.50
2019-03-28T15:44:23.389Z,12.50
2019-03-28T15:46:53.299Z,12.40
2019-03-28T15:49:23.097Z,12.40
2019-03-28T15:51:52.885Z,12.30
2019-03-28T15:54:22.746Z,12.30
2019-03-28T15:56:52.546Z,12.20
2019-03-28T15:59:22.377Z,12.20
2019-03-28T16:01:52.182Z,12.10
2019-03-28T16:04:24.675Z,12.00
2019-03-28T16:06:53.562Z,11.90
2019-03-28T16:09:23.437Z,11.90
2019-03-28T16:12:02.471Z,11.80
2019-03-28T16:14:24.793Z,11.80
2019-03-28T16:16:55.180Z,11.80
2019-03-28T16:19:25.302Z,11.80
2019-03-28T16:21:55.197Z,11.80
2019-03-28T16:24:25.154Z,11.80
2019-03-28T16:26:55.042Z,11.70
2019-03-28T16:29:24.869Z,11.80
2019-03-28T16:31:54.684Z,11.80
2019-03-28T16:34:24.583Z,11.70
2019-03-28T16:36:54.423Z,11.70
2019-03-28T16:39:24.252Z,11.70
2019-03-28T16:41:54.091Z,11.70
2019-03-28T16:44:23.893Z,11.70
2019-03-28T16:46:53.710Z,11.70
2019-03-28T16:49:23.552Z,11.70
2019-03-28T16:51:53.529Z,11.70
2019-03-28T16:54:23.490Z,11.60
2019-03-28T16:56:53.730Z,11.50
2019-03-28T16:59:23.830Z,11.50
2019-03-28T17:01:53.657Z,11.40
2019-03-28T17:04:23.411Z,11.30
2019-03-28T17:06:53.589Z,11.20
2019-03-28T17:09:25.327Z,11.20
2019-03-28T17:11:55.134Z,11.20
2019-03-28T17:14:24.941Z,11.20
2019-03-28T17:16:54.912Z,11.10
2019-03-28T17:19:24.796Z,11.10
2019-03-28T17:21:54.614Z,11.10
2019-03-28T17:24:24.456Z,11.00
2019-03-28T17:26:54.470Z,11.00
2019-03-28T17:29:24.305Z,11.00
2019-03-28T17:31:54.109Z,10.90
2019-03-28T17:34:34.182Z,10.90
2019-03-28T17:36:55.490Z,10.80
2019-03-28T17:39:25.429Z,10.70
2019-03-28T17:41:55.280Z,10.60
2019-03-28T17:44:25.188Z,10.50
2019-03-28T17:46:55.077Z,10.50
2019-03-28T17:49:25.907Z,10.50
2019-03-28T17:51:55.904Z,10.50
2019-03-28T17:54:25.774Z,10.50
2019-03-28T17:56:55.621Z,10.40
2019-03-28T17:59:25.534Z,10.30
2019-03-28T18:01:55.397Z,10.30
2019-03-28T18:04:25.191Z,10.30
2019-03-28T18:06:55.157Z,10.30
2019-03-28T18:09:25.118Z,10.20
2019-03-28T18:11:54.991Z,10.10
2019-03-28T18:14:24.824Z,10.20
2019-03-28T18:16:54.659Z,10.10
2019-03-28T18:19:24.557Z,10.10
2019-03-28T18:22:03.258Z,10.10
2019-03-28T18:24:26.000Z,10.00
2019-03-28T18:26:55.873Z,10.00
2019-03-28T18:29:25.701Z,10.00
2019-03-28T18:31:55.542Z,10.00
2019-03-28T18:34:25.358Z,9.90
2019-03-28T18:36:55.375Z,9.90
2019-03-28T18:39:25.230Z,9.90
2019-03-28T18:41:56.635Z,9.80
2019-03-28T18:44:26.704Z,9.80
2019-03-28T18:46:56.626Z,9.80
2019-03-28T18:49:26.466Z,9.80
2019-03-28T18:51:56.391Z,9.70
2019-03-28T18:54:26.197Z,9.70
2019-03-28T18:56:56.013Z,9.70
2019-03-28T18:59:25.846Z,9.70
2019-03-28T19:01:55.660Z,9.60
2019-03-28T19:04:25.517Z,9.60
2019-03-28T19:06:57.748Z,9.60
2019-03-28T19:09:26.875Z,9.60
2019-03-28T19:11:56.786Z,9.50
2019-03-28T19:14:26.602Z,9.50
2019-03-28T19:16:56.498Z,9.50
2019-03-28T19:19:38.654Z,9.50
2019-03-28T19:21:58.000Z,9.40
2019-03-28T19:24:28.019Z,9.40
2019-03-28T19:26:57.857Z,9.40
2019-03-28T19:29:27.703Z,9.40
2019-03-28T19:31:57.506Z,9.30
2019-03-28T19:34:27.452Z,9.30
2019-03-28T19:36:57.786Z,9.30
2019-03-28T19:39:32.210Z,9.20
2019-03-28T19:42:04.388Z,9.20
2019-03-28T19:44:33.613Z,9.20
2019-03-28T19:47:03.465Z,9.10
2019-03-28T19:49:33.265Z,9.10
2019-03-28T19:52:03.156Z,9.10
2019-03-28T19:54:33.038Z,9.00
2019-03-28T19:57:02.909Z,9.00
2019-03-28T19:59:32.709Z,9.00
2019-03-28T20:02:02.515Z,9.00
2019-03-28T20:04:32.386Z,9.00
2019-03-28T20:07:02.216Z,9.00
2019-03-28T20:09:32.040Z,8.90
2019-03-28T20:12:03.507Z,8.90
2019-03-28T20:14:33.401Z,8.90
2019-03-28T20:17:03.239Z,8.80
2019-03-28T20:19:33.044Z,8.80
2019-03-28T20:22:02.945Z,8.80
2019-03-28T20:24:32.757Z,8.80
2019-03-28T20:27:02.606Z,8.70
2019-03-28T20:29:33.511Z,8.60
2019-03-28T20:32:03.682Z,8.60
2019-03-28T20:34:33.641Z,8.60
2019-03-28T20:37:03.582Z,8.50
2019-03-28T20:39:33.389Z,8.40
2019-03-28T20:42:03.190Z,8.40
2019-03-28T20:44:33.033Z,8.30
2019-03-28T20:47:02.876Z,8.30
2019-03-28T20:49:32.666Z,8.20
2019-03-28T20:52:02.526Z,8.20
2019-03-28T20:54:32.346Z,8.20
2019-03-28T20:57:02.140Z,8.20
2019-03-28T20:59:31.951Z,8.20
2019-03-28T21:02:01.772Z,8.10
2019-03-28T21:04:31.957Z,8.10
2019-03-28T21:07:01.989Z,8.00
2019-03-28T21:09:31.795Z,8.00
2019-03-28T21:12:01.753Z,7.90
2019-03-28T21:14:31.587Z,7.90
2019-03-28T21:17:01.499Z,7.90
2019-03-28T21:19:31.322Z,7.80
2019-03-28T21:22:01.139Z,7.90
2019-03-28T21:24:31.064Z,7.90
2019-03-28T21:27:00.921Z,7.80
2019-03-28T21:29:33.771Z,7.70
2019-03-28T21:32:02.313Z,7.70
2019-03-28T21:34:32.264Z,7.60
2019-03-28T21:37:02.106Z,7.60
2019-03-28T21:39:32.051Z,7.70
2019-03-28T21:42:01.918Z,7.60
2019-03-28T21:44:31.747Z,7.50
2019-03-28T21:47:01.589Z,7.60
2019-03-28T21:49:31.401Z,7.60
2019-03-28T21:52:01.223Z,7.60
2019-03-28T21:54:31.109Z,7.50
2019-03-28T21:57:00.913Z,7.50
2019-03-28T21:59:30.722Z,7.50
2019-03-28T22:02:00.549Z,7.50
2019-03-28T22:04:30.366Z,7.50
2019-03-28T22:07:00.173Z,7.40
2019-03-28T22:09:30.047Z,7.40
2019-03-28T22:12:00.822Z,7.30
2019-03-28T22:14:31.029Z,7.30
2019-03-28T22:17:00.874Z,7.20
2019-03-28T22:19:30.758Z,7.30
2019-03-28T22:22:01.955Z,7.30
2019-03-28T22:24:32.107Z,7.30
2019-03-28T22:27:01.967Z,7.30
2019-03-28T22:29:31.798Z,7.20
2019-03-28T22:32:01.605Z,7.20
2019-03-28T22:34:31.429Z,7.20
2019-03-28T22:37:03.650Z,7.20
2019-03-28T22:39:32.815Z,7.10
2019-03-28T22:42:02.836Z,7.00
2019-03-28T22:44:34.057Z,6.90
2019-03-28T22:47:04.038Z,6.90
2019-03-28T22:49:33.841Z,6.90
2019-03-28T22:52:03.681Z,6.90
2019-03-28T22:54:33.492Z,6.90
2019-03-28T22:57:03.296Z,6.90
2019-03-28T22:59:33.162Z,6.80
2019-03-28T23:02:03.344Z,6.80
2019-03-28T23:04:33.190Z,6.80
2019-03-28T23:07:10.809Z,6.70
2019-03-28T23:09:34.510Z,6.70
2019-03-28T23:12:04.442Z,6.70
2019-03-28T23:14:34.250Z,6.60
2019-03-28T23:17:04.041Z,6.60
2019-03-28T23:19:33.879Z,6.50
2019-03-28T23:22:03.769Z,6.50
2019-03-28T23:24:33.618Z,6.60
2019-03-28T23:27:03.414Z,6.60
2019-03-28T23:29:33.216Z,6.70
2019-03-28T23:32:03.068Z,6.80
2019-03-28T23:34:32.893Z,6.70
2019-03-28T23:37:02.698Z,6.60
2019-03-28T23:39:32.509Z,6.50
2019-03-28T23:42:02.318Z,6.50
2019-03-28T23:44:32.169Z,6.50
2019-03-28T23:47:01.997Z,6.40
2019-03-28T23:49:31.816Z,6.50
2019-03-28T23:52:01.667Z,6.40
2019-03-28T23:54:31.671Z,6.40
2019-03-28T23:57:01.477Z,6.50
2019-03-28T23:59:31.311Z,6.50
